sensor_id;sensor_type;location;lat;lon;timestamp;P1;durP1;ratioP1;P2;durP2;ratioP2
7767;SDS011;3928;42.626;23.382;2022-09-09T00:01:43;12.90;;;9.02;;
7767;SDS011;3928;42.626;23.382;2022-09-09T00:04:23;10.20;;;9.15;;
7767;SDS011;3928;42.626;23.382;2022-09-09T00:06:56;12.95;;;10.48;;
7767;SDS011;3928;42.626;23.382;2022-09-09T00:09:29;10.55;;;9.45;;
7767;SDS011;3928;42.626;23.382;2022-09-09T00:12:04;11.70;;;8.55;;
7767;SDS011;3928;42.626;23.382;2022-09-09T00:14:43;10.82;;;8.88;;
7767;SDS011;3928;42.626;23.382;2022-09-09T00:17:18;9.43;;;8.45;;
7767;SDS011;3928;42.626;23.382;2022-09-09T00:19:55;9.82;;;8.75;;
7767;SDS011;3928;42.626;23.382;2022-09-09T00:22:27;11.15;;;8.43;;
7767;SDS011;3928;42.626;23.382;2022-09-09T00:24:58;12.48;;;8.45;;
7767;SDS011;3928;42.626;23.382;2022-09-09T00:27:37;10.70;;;9.02;;
7767;SDS011;3928;42.626;23.382;2022-09-09T00:30:14;11.95;;;8.57;;
7767;SDS011;3928;42.626;23.382;2022-09-09T00:32:44;8.85;;;8.02;;
7767;SDS011;3928;42.626;23.382;2022-09-09T00:35:18;9.68;;;8.60;;
7767;SDS011;3928;42.626;23.382;2022-09-09T00:37:50;12.50;;;8.27;;
7767;SDS011;3928;42.626;23.382;2022-09-09T00:40:23;10.93;;;8.15;;
7767;SDS011;3928;42.626;23.382;2022-09-09T00:43:03;11.98;;;7.90;;
7767;SDS011;3928;42.626;23.382;2022-09-09T00:48:55;12.77;;;8.38;;
7767;SDS011;3928;42.626;23.382;2022-09-09T00:51:35;9.95;;;8.93;;
7767;SDS011;3928;42.626;23.382;2022-09-09T00:54:18;8.25;;;7.47;;
7767;SDS011;3928;42.626;23.382;2022-09-09T00:56:54;12.95;;;7.93;;
7767;SDS011;3928;42.626;23.382;2022-09-09T00:59:32;9.15;;;7.72;;
7767;SDS011;3928;42.626;23.382;2022-09-09T01:02:08;8.77;;;7.90;;
7767;SDS011;3928;42.626;23.382;2022-09-09T01:04:43;9.50;;;8.55;;
7767;SDS011;3928;42.626;23.382;2022-09-09T01:07:15;12.30;;;8.60;;
7767;SDS011;3928;42.626;23.382;2022-09-09T01:09:54;10.93;;;8.25;;
7767;SDS011;3928;42.626;23.382;2022-09-09T01:12:24;17.20;;;9.43;;
7767;SDS011;3928;42.626;23.382;2022-09-09T01:14:56;9.57;;;8.20;;
7767;SDS011;3928;42.626;23.382;2022-09-09T01:17:30;10.52;;;8.77;;
7767;SDS011;3928;42.626;23.382;2022-09-09T01:20:04;8.98;;;8.10;;
7767;SDS011;3928;42.626;23.382;2022-09-09T01:22:42;11.13;;;8.80;;
7767;SDS011;3928;42.626;23.382;2022-09-09T01:25:22;9.57;;;8.35;;
7767;SDS011;3928;42.626;23.382;2022-09-09T01:28:28;12.52;;;9.43;;
7767;SDS011;3928;42.626;23.382;2022-09-09T01:30:57;9.80;;;8.75;;
7767;SDS011;3928;42.626;23.382;2022-09-09T01:33:27;10.38;;;9.30;;
7767;SDS011;3928;42.626;23.382;2022-09-09T01:35:55;9.90;;;8.90;;
7767;SDS011;3928;42.626;23.382;2022-09-09T01:38:27;9.52;;;8.60;;
7767;SDS011;3928;42.626;23.382;2022-09-09T01:40:59;12.55;;;8.80;;
7767;SDS011;3928;42.626;23.382;2022-09-09T01:43:26;12.60;;;9.88;;
7767;SDS011;3928;42.626;23.382;2022-09-09T01:45:55;11.10;;;9.52;;
7767;SDS011;3928;42.626;23.382;2022-09-09T01:48:24;10.27;;;8.90;;
7767;SDS011;3928;42.626;23.382;2022-09-09T01:50:52;9.57;;;8.68;;
7767;SDS011;3928;42.626;23.382;2022-09-09T01:53:19;10.23;;;9.23;;
7767;SDS011;3928;42.626;23.382;2022-09-09T01:55:49;10.88;;;8.73;;
7767;SDS011;3928;42.626;23.382;2022-09-09T01:58:28;10.57;;;8.98;;
7767;SDS011;3928;42.626;23.382;2022-09-09T02:01:02;11.00;;;9.25;;
7767;SDS011;3928;42.626;23.382;2022-09-09T02:03:33;13.98;;;9.80;;
7767;SDS011;3928;42.626;23.382;2022-09-09T02:06:07;11.52;;;9.20;;
7767;SDS011;3928;42.626;23.382;2022-09-09T02:08:46;10.05;;;9.05;;
7767;SDS011;3928;42.626;23.382;2022-09-09T02:11:16;9.98;;;8.73;;
7767;SDS011;3928;42.626;23.382;2022-09-09T02:13:47;9.63;;;8.63;;
7767;SDS011;3928;42.626;23.382;2022-09-09T02:16:16;11.45;;;8.93;;
7767;SDS011;3928;42.626;23.382;2022-09-09T02:18:50;12.02;;;8.43;;
7767;SDS011;3928;42.626;23.382;2022-09-09T02:21:23;8.45;;;7.75;;
7767;SDS011;3928;42.626;23.382;2022-09-09T02:23:54;11.15;;;8.05;;
7767;SDS011;3928;42.626;23.382;2022-09-09T02:26:25;9.68;;;8.68;;
7767;SDS011;3928;42.626;23.382;2022-09-09T02:28:55;11.43;;;8.73;;
7767;SDS011;3928;42.626;23.382;2022-09-09T02:31:27;8.95;;;7.93;;
7767;SDS011;3928;42.626;23.382;2022-09-09T02:33:58;9.98;;;8.98;;
7767;SDS011;3928;42.626;23.382;2022-09-09T02:36:29;10.25;;;8.90;;
7767;SDS011;3928;42.626;23.382;2022-09-09T02:39:01;9.82;;;8.60;;
7767;SDS011;3928;42.626;23.382;2022-09-09T02:41:31;9.55;;;8.63;;
7767;SDS011;3928;42.626;23.382;2022-09-09T02:44:04;11.90;;;9.70;;
7767;SDS011;3928;42.626;23.382;2022-09-09T02:46:35;13.50;;;9.43;;
7767;SDS011;3928;42.626;23.382;2022-09-09T02:49:11;11.32;;;8.75;;
7767;SDS011;3928;42.626;23.382;2022-09-09T02:51:46;10.30;;;8.65;;
7767;SDS011;3928;42.626;23.382;2022-09-09T02:54:21;14.27;;;9.32;;
7767;SDS011;3928;42.626;23.382;2022-09-09T02:56:56;11.45;;;8.98;;
7767;SDS011;3928;42.626;23.382;2022-09-09T02:59:31;11.18;;;9.73;;
7767;SDS011;3928;42.626;23.382;2022-09-09T03:01:59;19.38;;;11.15;;
7767;SDS011;3928;42.626;23.382;2022-09-09T03:04:26;11.15;;;10.02;;
7767;SDS011;3928;42.626;23.382;2022-09-09T03:06:54;10.93;;;9.82;;
7767;SDS011;3928;42.626;23.382;2022-09-09T03:09:22;12.10;;;10.40;;
7767;SDS011;3928;42.626;23.382;2022-09-09T03:11:51;12.88;;;11.25;;
7767;SDS011;3928;42.626;23.382;2022-09-09T03:14:17;12.30;;;11.10;;
7767;SDS011;3928;42.626;23.382;2022-09-09T03:16:47;16.40;;;11.70;;
7767;SDS011;3928;42.626;23.382;2022-09-09T03:19:14;14.98;;;12.57;;
7767;SDS011;3928;42.626;23.382;2022-09-09T03:21:43;13.85;;;12.30;;
7767;SDS011;3928;42.626;23.382;2022-09-09T03:24:10;13.63;;;12.32;;
7767;SDS011;3928;42.626;23.382;2022-09-09T03:26:37;14.27;;;11.85;;
7767;SDS011;3928;42.626;23.382;2022-09-09T03:29:05;14.00;;;12.50;;
7767;SDS011;3928;42.626;23.382;2022-09-09T03:31:35;13.30;;;11.73;;
7767;SDS011;3928;42.626;23.382;2022-09-09T03:34:03;18.77;;;12.73;;
7767;SDS011;3928;42.626;23.382;2022-09-09T03:36:30;14.05;;;11.65;;
7767;SDS011;3928;42.626;23.382;2022-09-09T03:38:57;16.13;;;12.20;;
7767;SDS011;3928;42.626;23.382;2022-09-09T03:41:25;14.15;;;12.73;;
7767;SDS011;3928;42.626;23.382;2022-09-09T03:43:52;18.70;;;11.82;;
7767;SDS011;3928;42.626;23.382;2022-09-09T03:46:20;12.77;;;10.85;;
7767;SDS011;3928;42.626;23.382;2022-09-09T03:48:48;15.00;;;11.15;;
7767;SDS011;3928;42.626;23.382;2022-09-09T03:51:17;14.48;;;11.35;;
7767;SDS011;3928;42.626;23.382;2022-09-09T03:53:44;12.55;;;11.25;;
7767;SDS011;3928;42.626;23.382;2022-09-09T03:56:11;12.57;;;11.32;;
7767;SDS011;3928;42.626;23.382;2022-09-09T03:58:38;13.57;;;10.95;;
7767;SDS011;3928;42.626;23.382;2022-09-09T04:01:07;15.23;;;11.15;;
7767;SDS011;3928;42.626;23.382;2022-09-09T04:03:35;11.52;;;10.32;;
7767;SDS011;3928;42.626;23.382;2022-09-09T04:06:02;15.88;;;11.55;;
7767;SDS011;3928;42.626;23.382;2022-09-09T04:08:32;12.85;;;10.88;;
7767;SDS011;3928;42.626;23.382;2022-09-09T04:11:00;13.32;;;10.73;;
7767;SDS011;3928;42.626;23.382;2022-09-09T04:13:30;15.15;;;10.30;;
7767;SDS011;3928;42.626;23.382;2022-09-09T04:15:57;17.08;;;10.75;;
7767;SDS011;3928;42.626;23.382;2022-09-09T04:18:27;13.95;;;11.07;;
7767;SDS011;3928;42.626;23.382;2022-09-09T04:20:54;14.23;;;10.60;;
7767;SDS011;3928;42.626;23.382;2022-09-09T04:23:22;11.93;;;9.68;;
7767;SDS011;3928;42.626;23.382;2022-09-09T04:25:51;13.40;;;10.85;;
7767;SDS011;3928;42.626;23.382;2022-09-09T04:28:20;13.45;;;10.27;;
7767;SDS011;3928;42.626;23.382;2022-09-09T04:30:49;11.18;;;10.00;;
7767;SDS011;3928;42.626;23.382;2022-09-09T04:33:17;10.55;;;9.52;;
7767;SDS011;3928;42.626;23.382;2022-09-09T04:35:44;10.75;;;9.00;;
7767;SDS011;3928;42.626;23.382;2022-09-09T04:38:13;11.75;;;9.00;;
7767;SDS011;3928;42.626;23.382;2022-09-09T04:40:42;12.48;;;9.20;;
7767;SDS011;3928;42.626;23.382;2022-09-09T04:43:12;11.27;;;8.18;;
7767;SDS011;3928;42.626;23.382;2022-09-09T04:45:39;11.93;;;9.25;;
7767;SDS011;3928;42.626;23.382;2022-09-09T04:48:06;10.93;;;9.80;;
7767;SDS011;3928;42.626;23.382;2022-09-09T04:50:34;11.57;;;9.63;;
7767;SDS011;3928;42.626;23.382;2022-09-09T04:53:01;9.90;;;9.00;;
7767;SDS011;3928;42.626;23.382;2022-09-09T04:55:30;9.50;;;8.57;;
7767;SDS011;3928;42.626;23.382;2022-09-09T04:57:57;11.02;;;9.27;;
7767;SDS011;3928;42.626;23.382;2022-09-09T05:00:30;10.55;;;8.63;;
7767;SDS011;3928;42.626;23.382;2022-09-09T05:05:31;11.60;;;8.82;;
7767;SDS011;3928;42.626;23.382;2022-09-09T05:08:00;10.38;;;8.55;;
7767;SDS011;3928;42.626;23.382;2022-09-09T05:10:28;9.77;;;8.77;;
7767;SDS011;3928;42.626;23.382;2022-09-09T05:12:55;11.23;;;9.20;;
7767;SDS011;3928;42.626;23.382;2022-09-09T05:15:21;12.73;;;8.80;;
7767;SDS011;3928;42.626;23.382;2022-09-09T05:17:50;10.80;;;8.45;;
7767;SDS011;3928;42.626;23.382;2022-09-09T05:20:18;14.23;;;8.13;;
7767;SDS011;3928;42.626;23.382;2022-09-09T05:22:45;10.75;;;8.32;;
7767;SDS011;3928;42.626;23.382;2022-09-09T05:25:11;11.68;;;8.60;;
7767;SDS011;3928;42.626;23.382;2022-09-09T05:27:38;9.52;;;7.55;;
7767;SDS011;3928;42.626;23.382;2022-09-09T05:30:06;9.70;;;7.88;;
7767;SDS011;3928;42.626;23.382;2022-09-09T05:32:33;8.95;;;7.82;;
7767;SDS011;3928;42.626;23.382;2022-09-09T05:35:02;12.25;;;8.20;;
7767;SDS011;3928;42.626;23.382;2022-09-09T05:37:30;13.27;;;7.53;;
7767;SDS011;3928;42.626;23.382;2022-09-09T05:39:57;9.50;;;8.23;;
7767;SDS011;3928;42.626;23.382;2022-09-09T05:42:24;8.63;;;7.75;;
7767;SDS011;3928;42.626;23.382;2022-09-09T05:44:51;8.52;;;7.28;;
7767;SDS011;3928;42.626;23.382;2022-09-09T05:47:19;8.88;;;7.30;;
7767;SDS011;3928;42.626;23.382;2022-09-09T05:49:46;8.95;;;7.78;;
7767;SDS011;3928;42.626;23.382;2022-09-09T05:52:14;7.90;;;7.10;;
7767;SDS011;3928;42.626;23.382;2022-09-09T05:54:41;8.45;;;7.40;;
7767;SDS011;3928;42.626;23.382;2022-09-09T05:57:08;10.07;;;7.57;;
7767;SDS011;3928;42.626;23.382;2022-09-09T05:59:35;12.00;;;9.30;;
7767;SDS011;3928;42.626;23.382;2022-09-09T06:02:03;8.75;;;7.55;;
7767;SDS011;3928;42.626;23.382;2022-09-09T06:04:30;9.18;;;8.23;;
7767;SDS011;3928;42.626;23.382;2022-09-09T06:06:57;10.98;;;6.43;;
7767;SDS011;3928;42.626;23.382;2022-09-09T06:09:25;10.55;;;6.88;;
7767;SDS011;3928;42.626;23.382;2022-09-09T06:11:52;9.02;;;6.93;;
7767;SDS011;3928;42.626;23.382;2022-09-09T06:14:19;8.52;;;6.10;;
7767;SDS011;3928;42.626;23.382;2022-09-09T06:16:46;10.05;;;6.32;;
7767;SDS011;3928;42.626;23.382;2022-09-09T06:19:13;7.90;;;6.93;;
7767;SDS011;3928;42.626;23.382;2022-09-09T06:21:40;7.55;;;6.78;;
7767;SDS011;3928;42.626;23.382;2022-09-09T06:24:09;9.52;;;6.10;;
7767;SDS011;3928;42.626;23.382;2022-09-09T06:26:40;9.00;;;6.50;;
7767;SDS011;3928;42.626;23.382;2022-09-09T06:29:07;11.02;;;6.70;;
7767;SDS011;3928;42.626;23.382;2022-09-09T06:31:36;11.57;;;6.25;;
7767;SDS011;3928;42.626;23.382;2022-09-09T06:34:04;8.35;;;6.60;;
7767;SDS011;3928;42.626;23.382;2022-09-09T06:36:33;9.10;;;6.13;;
7767;SDS011;3928;42.626;23.382;2022-09-09T06:39:03;17.95;;;8.18;;
7767;SDS011;3928;42.626;23.382;2022-09-09T06:41:31;14.02;;;7.40;;
7767;SDS011;3928;42.626;23.382;2022-09-09T06:44:00;7.28;;;6.32;;
7767;SDS011;3928;42.626;23.382;2022-09-09T06:46:29;12.48;;;6.72;;
7767;SDS011;3928;42.626;23.382;2022-09-09T06:48:58;10.10;;;6.78;;
7767;SDS011;3928;42.626;23.382;2022-09-09T06:51:26;17.35;;;9.65;;
7767;SDS011;3928;42.626;23.382;2022-09-09T06:53:56;15.00;;;10.18;;
7767;SDS011;3928;42.626;23.382;2022-09-09T06:56:25;6.35;;;5.85;;
7767;SDS011;3928;42.626;23.382;2022-09-09T06:58:54;11.18;;;6.50;;
7767;SDS011;3928;42.626;23.382;2022-09-09T07:01:26;9.48;;;6.43;;
7767;SDS011;3928;42.626;23.382;2022-09-09T07:03:55;9.65;;;7.32;;
7767;SDS011;3928;42.626;23.382;2022-09-09T07:06:24;7.47;;;6.40;;
7767;SDS011;3928;42.626;23.382;2022-09-09T07:08:53;9.57;;;5.90;;
7767;SDS011;3928;42.626;23.382;2022-09-09T07:11:21;8.38;;;6.03;;
7767;SDS011;3928;42.626;23.382;2022-09-09T07:13:49;8.65;;;6.32;;
7767;SDS011;3928;42.626;23.382;2022-09-09T07:16:17;18.05;;;6.43;;
7767;SDS011;3928;42.626;23.382;2022-09-09T07:18:46;11.85;;;6.20;;
7767;SDS011;3928;42.626;23.382;2022-09-09T07:21:15;13.48;;;6.63;;
7767;SDS011;3928;42.626;23.382;2022-09-09T07:23:42;7.70;;;6.50;;
7767;SDS011;3928;42.626;23.382;2022-09-09T07:26:10;8.45;;;6.05;;
7767;SDS011;3928;42.626;23.382;2022-09-09T07:28:37;13.68;;;6.10;;
7767;SDS011;3928;42.626;23.382;2022-09-09T07:31:04;10.60;;;7.22;;
7767;SDS011;3928;42.626;23.382;2022-09-09T07:33:33;12.35;;;6.47;;
7767;SDS011;3928;42.626;23.382;2022-09-09T07:36:06;10.38;;;6.22;;
7767;SDS011;3928;42.626;23.382;2022-09-09T07:38:37;8.55;;;6.32;;
7767;SDS011;3928;42.626;23.382;2022-09-09T07:41:06;8.05;;;5.63;;
7767;SDS011;3928;42.626;23.382;2022-09-09T07:43:37;9.48;;;6.03;;
7767;SDS011;3928;42.626;23.382;2022-09-09T07:46:04;9.45;;;6.40;;
7767;SDS011;3928;42.626;23.382;2022-09-09T07:48:31;11.32;;;6.32;;
7767;SDS011;3928;42.626;23.382;2022-09-09T07:51:08;7.13;;;6.07;;
7767;SDS011;3928;42.626;23.382;2022-09-09T07:53:37;9.45;;;5.82;;
7767;SDS011;3928;42.626;23.382;2022-09-09T07:56:06;11.73;;;7.07;;
7767;SDS011;3928;42.626;23.382;2022-09-09T07:58:34;13.60;;;6.78;;
7767;SDS011;3928;42.626;23.382;2022-09-09T08:01:05;11.35;;;6.30;;
7767;SDS011;3928;42.626;23.382;2022-09-09T08:03:34;11.02;;;6.38;;
7767;SDS011;3928;42.626;23.382;2022-09-09T08:06:01;9.95;;;6.38;;
7767;SDS011;3928;42.626;23.382;2022-09-09T08:08:30;9.35;;;6.07;;
7767;SDS011;3928;42.626;23.382;2022-09-09T08:11:01;14.18;;;6.75;;
7767;SDS011;3928;42.626;23.382;2022-09-09T08:13:29;13.98;;;6.25;;
7767;SDS011;3928;42.626;23.382;2022-09-09T08:16:03;7.68;;;6.05;;
7767;SDS011;3928;42.626;23.382;2022-09-09T08:18:32;11.43;;;5.90;;
7767;SDS011;3928;42.626;23.382;2022-09-09T08:21:04;8.70;;;6.43;;
7767;SDS011;3928;42.626;23.382;2022-09-09T08:23:33;11.25;;;6.18;;
7767;SDS011;3928;42.626;23.382;2022-09-09T08:26:04;11.70;;;6.32;;
7767;SDS011;3928;42.626;23.382;2022-09-09T08:28:35;9.02;;;6.45;;
7767;SDS011;3928;42.626;23.382;2022-09-09T08:31:12;8.70;;;5.80;;
7767;SDS011;3928;42.626;23.382;2022-09-09T08:33:41;9.82;;;5.65;;
7767;SDS011;3928;42.626;23.382;2022-09-09T08:36:10;12.95;;;6.43;;
7767;SDS011;3928;42.626;23.382;2022-09-09T08:38:41;12.82;;;6.65;;
7767;SDS011;3928;42.626;23.382;2022-09-09T08:41:14;12.30;;;6.68;;
7767;SDS011;3928;42.626;23.382;2022-09-09T08:44:00;9.65;;;6.10;;
7767;SDS011;3928;42.626;23.382;2022-09-09T08:46:34;14.57;;;7.32;;
7767;SDS011;3928;42.626;23.382;2022-09-09T08:49:13;11.75;;;6.18;;
7767;SDS011;3928;42.626;23.382;2022-09-09T08:51:53;11.82;;;6.60;;
7767;SDS011;3928;42.626;23.382;2022-09-09T08:54:24;13.95;;;8.82;;
7767;SDS011;3928;42.626;23.382;2022-09-09T08:56:59;11.20;;;6.28;;
7767;SDS011;3928;42.626;23.382;2022-09-09T08:59:26;12.70;;;6.13;;
7767;SDS011;3928;42.626;23.382;2022-09-09T09:02:00;9.93;;;6.25;;
7767;SDS011;3928;42.626;23.382;2022-09-09T09:04:43;16.20;;;6.28;;
7767;SDS011;3928;42.626;23.382;2022-09-09T09:07:21;13.43;;;6.50;;
7767;SDS011;3928;42.626;23.382;2022-09-09T09:10:01;8.18;;;5.57;;
7767;SDS011;3928;42.626;23.382;2022-09-09T09:12:32;9.65;;;6.25;;
7767;SDS011;3928;42.626;23.382;2022-09-09T09:15:05;11.88;;;6.30;;
7767;SDS011;3928;42.626;23.382;2022-09-09T09:17:41;12.75;;;5.90;;
7767;SDS011;3928;42.626;23.382;2022-09-09T09:20:11;14.50;;;5.72;;
7767;SDS011;3928;42.626;23.382;2022-09-09T09:22:43;7.80;;;5.75;;
7767;SDS011;3928;42.626;23.382;2022-09-09T09:25:16;8.52;;;6.45;;
7767;SDS011;3928;42.626;23.382;2022-09-09T09:27:49;9.77;;;6.30;;
7767;SDS011;3928;42.626;23.382;2022-09-09T09:30:22;10.38;;;6.28;;
7767;SDS011;3928;42.626;23.382;2022-09-09T09:32:53;5.95;;;5.30;;
7767;SDS011;3928;42.626;23.382;2022-09-09T09:35:22;8.05;;;5.45;;
7767;SDS011;3928;42.626;23.382;2022-09-09T09:37:50;10.02;;;5.53;;
7767;SDS011;3928;42.626;23.382;2022-09-09T09:40:20;8.88;;;5.85;;
7767;SDS011;3928;42.626;23.382;2022-09-09T09:42:49;14.27;;;5.72;;
7767;SDS011;3928;42.626;23.382;2022-09-09T09:45:23;8.98;;;6.10;;
7767;SDS011;3928;42.626;23.382;2022-09-09T09:48:01;7.78;;;6.00;;
7767;SDS011;3928;42.626;23.382;2022-09-09T09:50:30;9.30;;;6.22;;
7767;SDS011;3928;42.626;23.382;2022-09-09T09:52:59;10.55;;;6.10;;
7767;SDS011;3928;42.626;23.382;2022-09-09T09:55:33;10.02;;;6.13;;
7767;SDS011;3928;42.626;23.382;2022-09-09T09:58:02;10.05;;;5.70;;
7767;SDS011;3928;42.626;23.382;2022-09-09T10:00:30;10.05;;;6.32;;
7767;SDS011;3928;42.626;23.382;2022-09-09T10:02:59;6.88;;;6.13;;
7767;SDS011;3928;42.626;23.382;2022-09-09T10:05:28;17.02;;;6.97;;
7767;SDS011;3928;42.626;23.382;2022-09-09T10:08:08;11.95;;;5.90;;
7767;SDS011;3928;42.626;23.382;2022-09-09T10:10:41;22.17;;;7.35;;
7767;SDS011;3928;42.626;23.382;2022-09-09T10:13:32;17.40;;;7.47;;
7767;SDS011;3928;42.626;23.382;2022-09-09T10:16:10;18.30;;;7.40;;
7767;SDS011;3928;42.626;23.382;2022-09-09T10:18:50;9.48;;;6.53;;
7767;SDS011;3928;42.626;23.382;2022-09-09T10:21:32;11.68;;;6.78;;
7767;SDS011;3928;42.626;23.382;2022-09-09T10:24:23;11.85;;;6.65;;
7767;SDS011;3928;42.626;23.382;2022-09-09T10:27:11;18.08;;;9.13;;
7767;SDS011;3928;42.626;23.382;2022-09-09T10:29:53;31.13;;;11.55;;
7767;SDS011;3928;42.626;23.382;2022-09-09T10:32:36;11.75;;;6.65;;
7767;SDS011;3928;42.626;23.382;2022-09-09T10:35:10;26.00;;;9.57;;
7767;SDS011;3928;42.626;23.382;2022-09-09T10:37:43;12.85;;;6.80;;
7767;SDS011;3928;42.626;23.382;2022-09-09T10:40:23;14.02;;;7.15;;
7767;SDS011;3928;42.626;23.382;2022-09-09T10:43:01;10.63;;;6.72;;
7767;SDS011;3928;42.626;23.382;2022-09-09T10:45:38;18.40;;;8.82;;
7767;SDS011;3928;42.626;23.382;2022-09-09T10:48:25;15.20;;;8.70;;
7767;SDS011;3928;42.626;23.382;2022-09-09T10:51:00;17.00;;;9.75;;
7767;SDS011;3928;42.626;23.382;2022-09-09T10:53:42;9.75;;;7.43;;
7767;SDS011;3928;42.626;23.382;2022-09-09T10:56:18;9.30;;;6.72;;
7767;SDS011;3928;42.626;23.382;2022-09-09T10:58:50;12.98;;;7.55;;
7767;SDS011;3928;42.626;23.382;2022-09-09T11:01:24;12.57;;;7.45;;
7767;SDS011;3928;42.626;23.382;2022-09-09T11:03:55;12.98;;;6.95;;
7767;SDS011;3928;42.626;23.382;2022-09-09T11:06:29;13.15;;;7.40;;
7767;SDS011;3928;42.626;23.382;2022-09-09T11:09:01;10.25;;;7.30;;
7767;SDS011;3928;42.626;23.382;2022-09-09T11:11:32;14.50;;;7.15;;
7767;SDS011;3928;42.626;23.382;2022-09-09T11:14:08;11.00;;;7.78;;
7767;SDS011;3928;42.626;23.382;2022-09-09T11:16:42;20.48;;;8.30;;
7767;SDS011;3928;42.626;23.382;2022-09-09T11:19:16;15.95;;;7.65;;
7767;SDS011;3928;42.626;23.382;2022-09-09T11:21:51;20.67;;;11.38;;
7767;SDS011;3928;42.626;23.382;2022-09-09T11:24:21;13.40;;;8.05;;
7767;SDS011;3928;42.626;23.382;2022-09-09T11:26:54;15.75;;;7.28;;
7767;SDS011;3928;42.626;23.382;2022-09-09T11:29:42;14.25;;;7.10;;
7767;SDS011;3928;42.626;23.382;2022-09-09T11:32:24;13.45;;;8.00;;
7767;SDS011;3928;42.626;23.382;2022-09-09T11:35:07;16.88;;;8.93;;
7767;SDS011;3928;42.626;23.382;2022-09-09T11:38:01;20.05;;;7.88;;
7767;SDS011;3928;42.626;23.382;2022-09-09T11:40:46;14.73;;;8.30;;
7767;SDS011;3928;42.626;23.382;2022-09-09T11:43:23;11.02;;;8.13;;
7767;SDS011;3928;42.626;23.382;2022-09-09T11:45:56;14.00;;;7.63;;
7767;SDS011;3928;42.626;23.382;2022-09-09T11:48:27;10.98;;;7.07;;
7767;SDS011;3928;42.626;23.382;2022-09-09T11:50:59;14.50;;;8.13;;
7767;SDS011;3928;42.626;23.382;2022-09-09T11:53:29;12.10;;;7.75;;
7767;SDS011;3928;42.626;23.382;2022-09-09T11:56:02;16.58;;;9.55;;
7767;SDS011;3928;42.626;23.382;2022-09-09T11:58:55;11.65;;;8.15;;
7767;SDS011;3928;42.626;23.382;2022-09-09T12:01:34;14.02;;;7.82;;
7767;SDS011;3928;42.626;23.382;2022-09-09T12:04:09;10.52;;;8.07;;
7767;SDS011;3928;42.626;23.382;2022-09-09T12:06:44;15.68;;;7.60;;
7767;SDS011;3928;42.626;23.382;2022-09-09T12:09:17;17.30;;;7.88;;
7767;SDS011;3928;42.626;23.382;2022-09-09T12:11:49;12.93;;;7.80;;
7767;SDS011;3928;42.626;23.382;2022-09-09T12:14:22;15.43;;;7.43;;
7767;SDS011;3928;42.626;23.382;2022-09-09T12:17:09;18.30;;;10.93;;
7767;SDS011;3928;42.626;23.382;2022-09-09T12:19:44;15.88;;;9.10;;
7767;SDS011;3928;42.626;23.382;2022-09-09T12:22:14;12.38;;;8.90;;
7767;SDS011;3928;42.626;23.382;2022-09-09T12:24:52;17.00;;;10.68;;
7767;SDS011;3928;42.626;23.382;2022-09-09T12:27:27;11.80;;;7.97;;
7767;SDS011;3928;42.626;23.382;2022-09-09T12:30:02;12.50;;;7.72;;
7767;SDS011;3928;42.626;23.382;2022-09-09T12:32:31;13.23;;;7.68;;
7767;SDS011;3928;42.626;23.382;2022-09-09T12:34:59;13.13;;;7.47;;
7767;SDS011;3928;42.626;23.382;2022-09-09T12:37:31;8.75;;;7.80;;
7767;SDS011;3928;42.626;23.382;2022-09-09T12:40:02;11.30;;;7.10;;
7767;SDS011;3928;42.626;23.382;2022-09-09T12:42:31;12.13;;;7.80;;
7767;SDS011;3928;42.626;23.382;2022-09-09T12:45:01;12.88;;;7.50;;
7767;SDS011;3928;42.626;23.382;2022-09-09T12:47:34;10.15;;;7.13;;
7767;SDS011;3928;42.626;23.382;2022-09-09T12:50:14;17.17;;;7.07;;
7767;SDS011;3928;42.626;23.382;2022-09-09T12:52:42;14.73;;;8.07;;
7767;SDS011;3928;42.626;23.382;2022-09-09T12:55:15;14.45;;;8.43;;
7767;SDS011;3928;42.626;23.382;2022-09-09T12:57:44;10.20;;;7.20;;
7767;SDS011;3928;42.626;23.382;2022-09-09T13:00:15;13.13;;;7.82;;
7767;SDS011;3928;42.626;23.382;2022-09-09T13:02:47;15.25;;;8.57;;
7767;SDS011;3928;42.626;23.382;2022-09-09T13:05:17;27.75;;;23.58;;
7767;SDS011;3928;42.626;23.382;2022-09-09T13:07:46;20.08;;;13.38;;
7767;SDS011;3928;42.626;23.382;2022-09-09T13:10:13;12.18;;;9.85;;
7767;SDS011;3928;42.626;23.382;2022-09-09T13:12:45;12.02;;;8.07;;
7767;SDS011;3928;42.626;23.382;2022-09-09T13:15:16;13.65;;;7.53;;
7767;SDS011;3928;42.626;23.382;2022-09-09T13:17:54;10.32;;;7.30;;
7767;SDS011;3928;42.626;23.382;2022-09-09T13:20:23;16.08;;;8.13;;
7767;SDS011;3928;42.626;23.382;2022-09-09T13:22:51;19.50;;;8.27;;
7767;SDS011;3928;42.626;23.382;2022-09-09T13:25:23;18.92;;;7.97;;
7767;SDS011;3928;42.626;23.382;2022-09-09T13:27:54;12.32;;;7.47;;
7767;SDS011;3928;42.626;23.382;2022-09-09T13:30:25;12.27;;;7.60;;
7767;SDS011;3928;42.626;23.382;2022-09-09T13:33:05;11.60;;;8.18;;
7767;SDS011;3928;42.626;23.382;2022-09-09T13:35:45;15.80;;;8.00;;
7767;SDS011;3928;42.626;23.382;2022-09-09T13:38:15;17.10;;;7.60;;
7767;SDS011;3928;42.626;23.382;2022-09-09T13:40:51;19.55;;;8.07;;
7767;SDS011;3928;42.626;23.382;2022-09-09T13:43:23;15.40;;;8.20;;
7767;SDS011;3928;42.626;23.382;2022-09-09T13:45:54;21.08;;;9.40;;
7767;SDS011;3928;42.626;23.382;2022-09-09T13:48:23;17.20;;;9.02;;
7767;SDS011;3928;42.626;23.382;2022-09-09T13:50:58;15.48;;;7.40;;
7767;SDS011;3928;42.626;23.382;2022-09-09T13:53:26;22.08;;;13.75;;
7767;SDS011;3928;42.626;23.382;2022-09-09T13:55:54;17.15;;;9.95;;
7767;SDS011;3928;42.626;23.382;2022-09-09T13:58:22;13.65;;;8.50;;
7767;SDS011;3928;42.626;23.382;2022-09-09T14:00:50;15.38;;;8.50;;
7767;SDS011;3928;42.626;23.382;2022-09-09T14:03:19;18.27;;;7.45;;
7767;SDS011;3928;42.626;23.382;2022-09-09T14:05:47;13.05;;;8.52;;
7767;SDS011;3928;42.626;23.382;2022-09-09T14:08:18;12.07;;;7.55;;
7767;SDS011;3928;42.626;23.382;2022-09-09T14:10:49;19.40;;;8.00;;
7767;SDS011;3928;42.626;23.382;2022-09-09T14:13:16;13.05;;;7.30;;
7767;SDS011;3928;42.626;23.382;2022-09-09T14:15:43;16.10;;;7.78;;
7767;SDS011;3928;42.626;23.382;2022-09-09T14:18:11;16.85;;;7.57;;
7767;SDS011;3928;42.626;23.382;2022-09-09T14:20:40;13.38;;;8.48;;
7767;SDS011;3928;42.626;23.382;2022-09-09T14:23:09;12.27;;;7.90;;
7767;SDS011;3928;42.626;23.382;2022-09-09T14:25:41;14.73;;;8.07;;
7767;SDS011;3928;42.626;23.382;2022-09-09T14:28:09;17.85;;;7.97;;
7767;SDS011;3928;42.626;23.382;2022-09-09T14:30:38;12.57;;;8.27;;
7767;SDS011;3928;42.626;23.382;2022-09-09T14:33:08;18.42;;;8.02;;
7767;SDS011;3928;42.626;23.382;2022-09-09T14:35:37;15.77;;;6.93;;
7767;SDS011;3928;42.626;23.382;2022-09-09T14:38:07;18.13;;;7.43;;
7767;SDS011;3928;42.626;23.382;2022-09-09T14:40:35;12.63;;;7.65;;
7767;SDS011;3928;42.626;23.382;2022-09-09T14:43:03;14.43;;;8.18;;
7767;SDS011;3928;42.626;23.382;2022-09-09T14:45:31;12.90;;;7.57;;
7767;SDS011;3928;42.626;23.382;2022-09-09T14:47:58;14.00;;;6.95;;
7767;SDS011;3928;42.626;23.382;2022-09-09T14:50:25;17.20;;;8.45;;
7767;SDS011;3928;42.626;23.382;2022-09-09T14:52:52;11.88;;;7.65;;
7767;SDS011;3928;42.626;23.382;2022-09-09T14:55:21;17.38;;;7.75;;
7767;SDS011;3928;42.626;23.382;2022-09-09T14:57:50;16.02;;;12.00;;
7767;SDS011;3928;42.626;23.382;2022-09-09T15:00:17;22.05;;;9.15;;
7767;SDS011;3928;42.626;23.382;2022-09-09T15:02:44;14.05;;;8.30;;
7767;SDS011;3928;42.626;23.382;2022-09-09T15:05:11;14.07;;;8.43;;
7767;SDS011;3928;42.626;23.382;2022-09-09T15:07:38;9.88;;;7.82;;
7767;SDS011;3928;42.626;23.382;2022-09-09T15:10:06;15.55;;;8.60;;
7767;SDS011;3928;42.626;23.382;2022-09-09T15:12:34;11.77;;;8.30;;
7767;SDS011;3928;42.626;23.382;2022-09-09T15:15:02;12.98;;;8.13;;
7767;SDS011;3928;42.626;23.382;2022-09-09T15:17:29;15.88;;;8.52;;
7767;SDS011;3928;42.626;23.382;2022-09-09T15:19:57;14.48;;;8.32;;
7767;SDS011;3928;42.626;23.382;2022-09-09T15:22:24;13.88;;;8.93;;